Time;durP1;ratioP1;P1;durP2;ratioP2;P2;SDS_P1;SDS_P2;PMS_P1;PMS_P2;Temp;Humidity;BMP_temperature;BMP_pressure;BME280_temperature;BME280_humidity;BME280_pressure;Samples;Min_cycle;Max_cycle;Signal;HPM_P1;HPM_P2
2022/11/17 00:00:00;;;;;;;3.53;2.47;;;;;;;11.45;80.82;98292.44;10543672;28;20630;-69
2022/11/17 00:05:02;;;;;;;4.68;2.50;;;;;;;11.37;81.92;98288.00;10510711;28;20043;-71
2022/11/17 00:10:04;;;;;;;6.15;2.30;;;;;;;11.37;80.94;98263.22;10528811;27;20051;-72
2022/11/17 00:15:05;;;;;;;4.40;2.40;;;;;;;11.39;81.22;98255.88;10521861;28;20818;-71
2022/11/17 00:25:29;;;;;;;3.40;2.15;;;;;;;11.37;81.26;98241.91;10525694;28;20512;-70
2022/11/17 00:35:53;;;;;;;7.10;2.50;;;;;;;11.35;80.95;98238.56;10519348;28;20515;-69
2022/11/17 00:40:54;;;;;;;4.13;2.20;;;;;;;11.36;80.98;98234.91;10511644;28;20056;-69
2022/11/17 00:45:55;;;;;;;5.45;2.33;;;;;;;11.30;80.71;98223.97;10507098;28;20055;-71
2022/11/17 00:51:01;;;;;;;3.70;2.20;;;;;;;11.27;81.23;98208.34;10508173;28;20056;-70
2022/11/17 00:56:03;;;;;;;4.32;1.90;;;;;;;11.20;81.50;98199.41;10525486;28;20046;-71
2022/11/17 01:01:04;;;;;;;3.67;2.00;;;;;;;11.21;81.60;98179.75;10524258;28;20048;-71
2022/11/17 01:06:09;;;;;;;2.58;1.77;;;;;;;11.17;82.09;98166.97;10554946;28;20036;-72
2022/11/17 01:11:18;;;;;;;3.17;2.08;;;;;;;11.19;81.89;98170.31;10577383;27;20040;-72
2022/11/17 01:16:20;;;;;;;4.25;2.65;;;;;;;11.16;81.66;98162.69;10561607;28;20138;-71
2022/11/17 01:21:23;;;;;;;4.15;2.00;;;;;;;11.10;81.47;98162.34;10530979;28;20039;-71
2022/11/17 01:26:28;;;;;;;6.20;2.00;;;;;;;11.03;82.27;98149.94;10553643;28;20071;-69
2022/11/17 01:31:35;;;;;;;4.53;1.83;;;;;;;11.06;82.14;98136.28;10519796;28;20585;-72
2022/11/17 01:42:10;;;;;;;4.28;1.65;;;;;;;11.05;81.58;98126.63;10518699;28;20043;-69
2022/11/17 01:47:37;;;;;;;4.57;1.60;;;;;;;11.07;82.05;98103.31;10523654;28;20149;-70
2022/11/17 01:52:39;;;;;;;3.50;1.90;;;;;;;11.06;82.18;98093.69;10528251;28;20059;-72
2022/11/17 01:57:48;;;;;;;4.45;1.98;;;;;;;11.05;82.34;98073.38;10517327;28;20044;-70
2022/11/17 02:02:50;;;;;;;3.38;2.45;;;;;;;11.02;82.61;98068.41;10515346;28;20050;-69
2022/11/17 02:07:53;;;;;;;4.65;2.20;;;;;;;11.01;82.85;98048.97;10529476;27;20659;-70
2022/11/17 02:12:55;;;;;;;3.92;2.08;;;;;;;10.94;83.05;98056.84;10522707;28;20614;-69
2022/11/17 02:17:57;;;;;;;4.10;2.28;;;;;;;10.90;82.97;98042.25;10523099;27;20051;-69
2022/11/17 02:23:32;;;;;;;4.32;2.13;;;;;;;10.95;83.02;98041.69;10525380;28;20036;-71
2022/11/17 02:28:39;;;;;;;4.57;1.85;;;;;;;10.92;83.10;98026.91;10527839;27;20055;-71
2022/11/17 02:33:40;;;;;;;3.07;1.87;;;;;;;10.94;82.94;98018.75;10528142;28;20042;-71
2022/11/17 02:38:56;;;;;;;2.38;1.88;;;;;;;10.92;83.04;98021.59;10523577;28;20610;-69
2022/11/17 02:44:20;;;;;;;1.73;1.50;;;;;;;10.94;83.35;98006.28;10529188;28;20049;-72
2022/11/17 02:49:35;;;;;;;3.00;1.77;;;;;;;10.93;84.53;98001.94;10528919;28;20436;-70
2022/11/17 02:54:36;;;;;;;4.63;1.50;;;;;;;10.93;85.75;97985.97;10522058;28;20556;-69
2022/11/17 02:59:44;;;;;;;5.22;1.70;;;;;;;10.96;85.36;97985.63;10524388;27;20093;-71
2022/11/17 03:05:13;;;;;;;5.15;1.88;;;;;;;10.94;84.91;97990.31;10527132;28;20051;-70
2022/11/17 03:10:41;;;;;;;3.58;1.60;;;;;;;10.95;86.27;97970.66;10527780;28;20039;-69
2022/11/17 03:15:56;;;;;;;2.75;1.65;;;;;;;10.99;85.52;97965.81;10526632;28;20044;-70
2022/11/17 03:21:04;;;;;;;2.80;1.80;;;;;;;11.01;85.00;97968.28;10516180;27;20047;-71
2022/11/17 03:26:11;;;;;;;4.43;2.15;;;;;;;10.93;86.08;97956.69;10514046;28;20040;-70
2022/11/17 03:31:14;;;;;;;3.70;1.70;;;;;;;10.91;85.31;97942.75;10525252;28;20035;-69
2022/11/17 03:36:21;;;;;;;6.55;1.98;;;;;;;10.87;85.50;97938.81;10522277;27;20650;-69
2022/11/17 03:41:24;;;;;;;3.85;1.50;;;;;;;10.91;86.00;97918.81;10524201;28;20052;-71
2022/11/17 03:46:28;;;;;;;2.78;1.80;;;;;;;10.91;85.61;97917.97;10508449;28;20035;-71
2022/11/17 03:51:32;;;;;;;6.20;1.80;;;;;;;10.89;85.11;97923.47;10512663;28;20039;-70
2022/11/17 03:56:48;;;;;;;4.75;2.10;;;;;;;10.85;85.03;97914.19;10524527;27;20054;-72
2022/11/17 04:01:49;;;;;;;3.65;1.88;;;;;;;10.83;85.38;97908.22;10520874;28;20051;-69
2022/11/17 04:06:54;;;;;;;2.72;1.58;;;;;;;10.83;85.07;97894.94;10522470;28;20047;-68
2022/11/17 04:17:15;;;;;;;2.95;2.00;;;;;;;10.86;84.32;97896.41;10524016;28;20007;-70
2022/11/17 04:22:16;;;;;;;3.13;1.63;;;;;;;10.87;83.88;97892.72;10510921;28;20070;-70
2022/11/17 04:32:38;;;;;;;3.08;1.70;;;;;;;10.94;84.11;97886.50;10526846;28;20055;-70
2022/11/17 04:37:39;;;;;;;2.50;1.30;;;;;;;10.91;84.48;97897.50;10577743;28;20043;-69
2022/11/17 04:42:40;;;;;;;2.85;1.30;;;;;;;10.96;83.46;97899.63;10522127;28;20036;-68
2022/11/17 04:47:42;;;;;;;3.88;1.27;;;;;;;10.99;83.91;97893.09;10529566;28;20414;-71
2022/11/17 04:52:43;;;;;;;2.80;1.67;;;;;;;10.96;83.41;97895.13;10528947;28;20603;-68
2022/11/17 04:57:44;;;;;;;4.43;1.63;;;;;;;10.98;84.10;97902.09;10526144;28;20055;-69
2022/11/17 05:02:45;;;;;;;2.53;1.00;;;;;;;10.98;84.03;97886.13;10533990;28;20046;-68
2022/11/17 05:07:47;;;;;;;1.70;1.15;;;;;;;10.98;83.91;97888.78;10570596;28;20104;-71
2022/11/17 05:18:08;;;;;;;1.92;0.95;;;;;;;11.09;85.11;97880.31;10524726;28;20052;-68
2022/11/17 05:28:30;;;;;;;2.17;0.90;;;;;;;11.14;85.31;97885.94;10523819;28;20062;-70
2022/11/17 05:33:31;;;;;;;1.90;0.70;;;;;;;11.13;86.18;97892.25;10510442;28;20051;-72
2022/11/17 05:38:38;;;;;;;3.47;1.00;;;;;;;11.14;87.83;97885.94;10501417;28;20048;-69
2022/11/17 05:43:39;;;;;;;2.17;1.10;;;;;;;11.17;88.69;97901.53;10498587;28;20061;-70
2022/11/17 05:48:40;;;;;;;1.23;0.70;;;;;;;11.17;89.71;97890.88;10518132;28;20252;-70
2022/11/17 05:53:42;;;;;;;3.80;1.23;;;;;;;11.16;90.94;97877.75;10503906;28;20205;-71
2022/11/17 05:58:46;;;;;;;2.78;1.55;;;;;;;11.14;90.45;97891.25;10499629;28;20051;-70
2022/11/17 06:03:52;;;;;;;5.77;1.40;;;;;;;11.14;91.20;97901.91;10512806;28;20044;-73
2022/11/17 06:08:54;;;;;;;2.67;1.73;;;;;;;11.28;91.84;97902.91;10548562;28;20054;-71
2022/11/17 06:13:55;;;;;;;2.15;1.30;;;;;;;11.31;92.44;97908.66;10518635;27;21380;-71
2022/11/17 06:19:14;;;;;;;3.00;1.75;;;;;;;11.28;93.28;97885.06;10499749;28;20052;-69
2022/11/17 06:24:16;;;;;;;2.22;1.10;;;;;;;11.22;93.20;97877.84;10513604;27;20051;-70
2022/11/17 06:29:18;;;;;;;3.85;1.60;;;;;;;11.20;91.49;97879.88;10514791;27;20663;-72
2022/11/17 06:34:19;;;;;;;3.72;2.20;;;;;;;11.20;92.85;97874.53;10494067;28;20044;-69
2022/11/17 06:39:21;;;;;;;2.08;1.70;;;;;;;11.18;92.84;97868.56;10510682;28;20752;-70
2022/11/17 06:44:22;;;;;;;3.05;1.60;;;;;;;11.24;92.30;97881.13;10499500;28;20048;-69
2022/11/17 06:49:23;;;;;;;3.17;1.83;;;;;;;11.24;92.52;97878.47;10515572;28;20046;-69
2022/11/17 06:54:25;;;;;;;3.55;1.42;;;;;;;11.25;92.38;97866.81;10498118;28;20158;-69
2022/11/17 06:59:26;;;;;;;2.45;1.40;;;;;;;11.25;91.89;97872.13;10510563;28;20075;-69
2022/11/17 07:04:28;;;;;;;5.45;1.77;;;;;;;11.30;92.05;97872.41;10526485;28;20183;-70
2022/11/17 07:09:29;;;;;;;2.83;1.25;;;;;;;11.28;90.88;97866.44;10554737;28;20144;-74
2022/11/17 07:14:31;;;;;;;3.92;1.48;;;;;;;11.22;91.77;97861.84;10506353;28;20050;-72
2022/11/17 07:19:32;;;;;;;3.80;1.55;;;;;;;11.25;92.43;97856.16;10531073;28;20068;-72
2022/11/17 07:24:33;;;;;;;2.85;1.30;;;;;;;11.21;92.75;97846.88;10532448;28;20107;-72
2022/11/17 07:29:35;;;;;;;5.00;1.10;;;;;;;11.13;91.55;97855.00;10558496;28;20051;-72
2022/11/17 07:34:36;;;;;;;2.40;1.40;;;;;;;11.20;91.99;97845.25;10556297;28;22345;-72
2022/11/17 07:39:38;;;;;;;3.53;1.30;;;;;;;11.22;91.17;97845.88;10518474;27;20092;-70
2022/11/17 07:44:39;;;;;;;4.40;1.23;;;;;;;11.34;90.84;97851.56;10489515;28;20132;-71
2022/11/17 07:49:40;;;;;;;3.97;1.48;;;;;;;11.47;90.40;97842.91;10513897;28;20040;-71
2022/11/17 07:54:42;;;;;;;3.50;0.85;;;;;;;11.63;89.78;97829.34;10512682;27;20124;-71
2022/11/17 07:59:43;;;;;;;3.38;1.20;;;;;;;11.79;88.01;97835.44;10509010;28;20044;-74
2022/11/17 08:04:44;;;;;;;5.85;1.48;;;;;;;11.99;87.27;97832.97;10495444;28;20047;-73
2022/11/17 08:09:46;;;;;;;5.30;0.95;;;;;;;12.18;85.60;97839.50;10513980;28;20075;-70
2022/11/17 08:14:47;;;;;;;4.25;1.30;;;;;;;12.37;84.79;97843.34;10505939;28;20161;-71
2022/11/17 08:19:48;;;;;;;1.63;0.60;;;;;;;12.41;82.99;97843.78;10480264;28;20047;-70
2022/11/17 08:24:50;;;;;;;1.98;0.70;;;;;;;12.31;83.94;97847.59;10491376;28;20438;-73
2022/11/17 08:29:51;;;;;;;2.22;1.20;;;;;;;12.30;82.97;97837.94;10493307;28;20053;-69
2022/11/17 08:34:53;;;;;;;2.25;0.52;;;;;;;12.14;82.64;97843.56;10495973;28;20127;-70
2022/11/17 08:39:54;;;;;;;3.97;1.05;;;;;;;12.17;82.38;97840.50;10508107;28;20055;-69
2022/11/17 08:44:55;;;;;;;5.95;1.13;;;;;;;12.15;82.69;97834.56;10490914;28;21309;-68
2022/11/17 08:49:57;;;;;;;3.38;1.10;;;;;;;12.32;81.39;97832.41;10539036;28;20048;-72
2022/11/17 08:54:58;;;;;;;4.25;0.77;;;;;;;12.47;80.67;97834.97;10498724;28;20133;-71
2022/11/17 09:00:01;;;;;;;5.07;1.40;;;;;;;12.55;78.57;97818.84;10511908;28;20283;-70
2022/11/17 09:05:03;;;;;;;4.40;0.82;;;;;;;12.69;79.00;97833.88;10541418;27;20434;-70
2022/11/17 09:10:05;;;;;;;3.72;0.90;;;;;;;12.78;77.14;97831.09;10498773;28;20371;-72
2022/11/17 09:15:07;;;;;;;3.08;0.73;;;;;;;12.83;76.49;97840.13;10512305;27;20051;-70
2022/11/17 09:20:09;;;;;;;6.53;1.30;;;;;;;12.93;76.76;97841.63;10509897;28;20047;-71
2022/11/17 09:25:11;;;;;;;4.10;1.60;;;;;;;12.91;75.47;97858.66;10493111;28;20055;-68
2022/11/17 09:30:14;;;;;;;7.22;1.38;;;;;;;12.81;75.97;97870.72;10496580;28;20105;-70
2022/11/17 09:35:17;;;;;;;7.82;1.65;;;;;;;12.76;77.52;97878.47;10516836;28;20651;-71
2022/11/17 09:40:19;;;;;;;2.70;0.80;;;;;;;12.66;78.28;97895.66;10488568;28;20510;-71
2022/11/17 09:45:26;;;;;;;5.25;1.10;;;;;;;13.17;75.72;97891.06;10487880;28;20529;-70
2022/11/17 09:50:33;;;;;;;3.15;0.75;;;;;;;13.84;72.76;97891.31;10504433;28;20055;-70
2022/11/17 09:55:37;;;;;;;5.38;1.15;;;;;;;13.79;72.06;97906.09;10508187;28;20051;-73
2022/11/17 10:00:42;;;;;;;3.75;1.40;;;;;;;13.80;71.41;97914.97;10507525;28;20131;-71
2022/11/17 10:05:43;;;;;;;;;;;;;;;13.65;72.46;97909.78;10499486;28;20047;-69
2022/11/17 10:10:48;;;;;;;4.13;0.73;;;;;;;13.56;72.81;97921.69;10503785;28;19928;-72
2022/11/17 10:15:56;;;;;;;5.35;1.13;;;;;;;13.50;74.06;97927.81;10486496;28;20078;-69
2022/11/17 10:20:57;;;;;;;3.90;1.05;;;;;;;14.04;72.04;97924.28;10507652;28;20141;-72
2022/11/17 10:25:59;;;;;;;5.55;1.20;;;;;;;16.48;64.63;97931.28;10510421;28;20047;-70
2022/11/17 10:31:03;;;;;;;4.53;1.48;;;;;;;18.06;56.72;97922.00;10507406;28;20715;-71
2022/11/17 10:36:13;;;;;;;3.00;0.90;;;;;;;18.96;53.07;97931.81;10511751;28;20051;-69
2022/11/17 10:41:18;;;;;;;2.70;0.73;;;;;;;17.70;55.92;97932.59;10511635;28;20043;-68
2022/11/17 10:46:21;;;;;;;2.95;0.68;;;;;;;15.88;62.68;97940.56;10482424;28;20598;-68
2022/11/17 10:51:25;;;;;;;4.68;1.00;;;;;;;14.95;66.28;97940.81;10519573;28;20582;-70
2022/11/17 10:56:28;;;;;;;4.93;1.35;;;;;;;14.88;67.56;97940.84;10505361;27;20051;-74
2022/11/17 11:01:36;;;;;;;6.37;1.67;;;;;;;17.46;58.63;97934.34;10508610;28;20490;-72
2022/11/17 11:06:37;;;;;;;4.72;1.08;;;;;;;20.10;50.86;97935.78;10487866;28;20722;-68
2022/11/17 11:11:47;;;;;;;3.78;1.08;;;;;;;19.38;50.67;97939.72;10506874;28;20446;-69
2022/11/17 11:16:49;;;;;;;10.27;7.70;;;;;;;16.83;58.85;97933.50;10486403;28;20050;-69
2022/11/17 11:22:29;;;;;;;3.85;0.95;;;;;;;15.45;64.00;97930.41;10508352;28;20043;-71
2022/11/17 11:27:46;;;;;;;4.22;1.17;;;;;;;14.49;68.30;97935.25;10504005;28;20050;-71
2022/11/17 11:33:22;;;;;;;2.97;1.10;;;;;;;13.76;72.04;97943.94;10491169;28;20054;-71
2022/11/17 11:38:36;;;;;;;4.30;1.27;;;;;;;13.55;76.37;97952.09;10509038;28;20450;-70
2022/11/17 11:43:59;;;;;;;3.60;1.53;;;;;;;13.56;77.55;97959.09;10503105;28;20152;-71
2022/11/17 11:49:15;;;;;;;3.53;0.95;;;;;;;13.28;79.30;97962.63;10506829;28;20506;-73
2022/11/17 11:54:39;;;;;;;3.90;1.20;;;;;;;13.65;78.13;97963.25;10504636;28;20130;-69
2022/11/17 11:59:49;;;;;;;5.75;1.70;;;;;;;14.71;73.51;97953.81;10504345;27;20052;-75
2022/11/17 12:05:16;;;;;;;6.63;1.25;;;;;;;14.22;74.23;97968.38;10501409;28;20437;-72
2022/11/17 12:10:34;;;;;;;4.20;1.67;;;;;;;13.96;74.66;97969.91;10508325;28;20048;-71
2022/11/17 12:15:36;;;;;;;4.63;1.17;;;;;;;14.89;71.29;97971.09;10502693;28;20052;-72
2022/11/17 12:20:38;;;;;;;6.32;2.83;;;;;;;20.98;51.62;97969.72;10499554;28;20055;-67
2022/11/17 12:25:48;;;;;;;5.55;1.52;;;;;;;25.09;41.82;97961.06;10494869;28;20051;-72
2022/11/17 12:31:05;;;;;;;3.85;1.50;;;;;;;26.14;38.28;97957.75;10496285;28;20196;-70
2022/11/17 12:36:31;;;;;;;3.42;1.60;;;;;;;23.67;41.97;97960.53;10500726;28;20192;-71
2022/11/17 12:41:47;;;;;;;3.45;0.80;;;;;;;20.05;48.67;97976.19;10493117;28;20770;-73
2022/11/17 12:46:58;;;;;;;2.65;0.75;;;;;;;17.91;55.05;97971.69;10479276;28;20126;-70
2022/11/17 12:52:06;;;;;;;3.33;1.10;;;;;;;16.89;58.15;97978.31;10480241;28;20066;-70
2022/11/17 12:57:30;;;;;;;2.47;0.70;;;;;;;15.87;60.94;97981.81;10496673;28;20051;-69
2022/11/17 13:03:09;;;;;;;4.20;1.17;;;;;;;16.88;59.31;97986.59;10497413;28;20047;-72
2022/11/17 13:08:20;;;;;;;1.73;0.50;;;;;;;19.23;51.43;97985.22;10488372;28;20035;-70
2022/11/17 13:13:23;;;;;;;2.30;0.68;;;;;;;21.70;44.87;97984.28;10488976;27;20705;-74
2022/11/17 13:18:35;;;;;;;;;;;;;;;23.74;40.56;97993.69;10489017;28;20085;-69
2022/11/17 13:23:43;;;;;;;2.97;0.30;;;;;;;22.51;41.11;97975.44;10475758;28;20481;-74
2022/11/17 13:28:45;;;;;;;1.88;0.30;;;;;;;18.68;50.78;97983.66;10497195;28;20051;-71
2022/11/17 13:34:05;;;;;;;3.65;0.68;;;;;;;16.89;56.90;97988.22;10484194;28;20485;-68
2022/11/17 13:39:15;;;;;;;2.22;0.30;;;;;;;15.90;60.68;98007.41;10491718;28;20406;-68
2022/11/17 13:44:21;;;;;;;3.90;0.60;;;;;;;15.38;63.58;98010.81;10490305;28;20048;-70
2022/11/17 13:49:31;;;;;;;2.72;0.80;;;;;;;14.97;65.33;98019.13;10497138;28;20160;-70
2022/11/17 13:54:33;;;;;;;3.40;0.70;;;;;;;14.82;65.87;98027.38;10492852;28;20207;-72
2022/11/17 13:59:37;;;;;;;3.50;0.75;;;;;;;14.73;66.42;98037.44;10496665;28;20054;-72
2022/11/17 14:04:38;;;;;;;4.43;0.77;;;;;;;14.58;67.33;98031.44;10490464;28;20068;-69
2022/11/17 14:09:39;;;;;;;1.95;0.70;;;;;;;14.28;67.91;98026.41;10497529;28;20708;-71
2022/11/17 14:14:42;;;;;;;1.80;0.60;;;;;;;14.24;68.33;98014.47;10506874;27;20059;-70
2022/11/17 14:19:45;;;;;;;3.15;0.85;;;;;;;13.93;68.81;98018.47;10502721;28;20148;-72
2022/11/17 14:24:46;;;;;;;3.38;0.68;;;;;;;13.84;69.79;98015.16;10492585;28;20083;-71
2022/11/17 14:29:48;;;;;;;4.65;1.27;;;;;;;13.77;70.29;98028.47;10494106;28;20575;-71
2022/11/17 14:34:49;;;;;;;3.60;2.67;;;;;;;13.59;70.51;98023.66;10517713;28;20418;-71
2022/11/17 14:39:50;;;;;;;3.83;1.15;;;;;;;13.44;71.22;98041.69;10515087;28;20052;-70
2022/11/17 14:44:52;;;;;;;4.47;0.82;;;;;;;13.32;71.98;98043.22;10508636;28;20152;-72
2022/11/17 14:49:53;;;;;;;4.07;0.77;;;;;;;13.30;72.31;98038.06;10484914;28;20456;-70
2022/11/17 14:54:54;;;;;;;3.40;1.27;;;;;;;12.99;77.78;98030.44;10507345;28;20052;-74
2022/11/17 14:59:56;;;;;;;5.70;0.77;;;;;;;12.95;78.67;98035.31;10513997;28;20055;-72
2022/11/17 15:04:58;;;;;;;1.42;0.70;;;;;;;12.90;78.48;98035.09;10513382;28;20044;-72
2022/11/17 15:10:00;;;;;;;5.22;1.42;;;;;;;12.95;79.80;98038.00;10534913;28;20081;-71
2022/11/17 15:15:03;;;;;;;10.15;5.00;;;;;;;13.06;81.02;98032.13;10515755;28;20059;-74
2022/11/17 15:20:06;;;;;;;7.20;1.67;;;;;;;12.21;82.11;98057.81;10505262;28;20052;-71
2022/11/17 15:25:08;;;;;;;4.70;1.27;;;;;;;12.30;79.96;98055.84;10531364;28;20057;-71
2022/11/17 15:30:09;;;;;;;3.72;0.65;;;;;;;12.30;77.33;98072.69;10555727;27;20055;-74
2022/11/17 15:35:11;;;;;;;3.10;0.90;;;;;;;12.32;79.14;98075.16;10554467;27;20054;-72
2022/11/17 15:40:12;;;;;;;5.53;1.17;;;;;;;12.28;80.85;98061.38;10521927;28;20072;-68
2022/11/17 15:45:19;;;;;;;2.53;0.82;;;;;;;12.18;82.43;98064.34;10487989;27;20246;-69
2022/11/17 15:50:20;;;;;;;3.30;1.00;;;;;;;12.13;83.47;98061.41;10490600;28;20051;-69
2022/11/17 15:55:22;;;;;;;4.80;1.17;;;;;;;12.20;83.21;98061.47;10492190;28;20043;-72
2022/11/17 16:00:23;;;;;;;4.40;1.30;;;;;;;12.05;84.40;98060.69;10505423;28;20056;-68
2022/11/17 16:05:24;;;;;;;4.15;0.93;;;;;;;11.96;85.21;98074.13;10489192;28;20052;-71
2022/11/17 16:10:26;;;;;;;2.95;0.90;;;;;;;11.81;86.43;98078.59;10495770;28;20112;-72
2022/11/17 16:15:27;;;;;;;4.03;0.93;;;;;;;11.78;86.32;98078.97;10536410;27;20059;-70
2022/11/17 16:20:29;;;;;;;3.65;1.48;;;;;;;11.73;87.03;98081.38;10510833;28;20749;-68
2022/11/17 16:25:30;;;;;;;3.72;1.10;;;;;;;11.72;87.13;98077.06;10501257;28;20114;-74
2022/11/17 16:30:32;;;;;;;3.92;1.00;;;;;;;11.65;86.39;98083.13;10507366;27;20054;-69
2022/11/17 16:35:36;;;;;;;5.68;2.08;;;;;;;11.70;87.12;98087.91;10501164;28;20052;-71
2022/11/17 16:40:38;;;;;;;3.45;1.00;;;;;;;11.73;86.33;98092.84;10503771;28;20052;-68
2022/11/17 16:45:43;;;;;;;5.18;1.70;;;;;;;11.64;86.33;98092.13;10496727;28;20711;-69
2022/11/17 16:50:45;;;;;;;4.05;0.88;;;;;;;11.55;85.96;98087.88;10487264;28;20135;-69
2022/11/17 16:55:47;;;;;;;2.88;1.33;;;;;;;11.55;86.50;98082.56;10503901;28;20050;-71
2022/11/17 17:00:48;;;;;;;2.78;0.82;;;;;;;11.57;85.54;98083.19;10504581;28;20044;-70
2022/11/17 17:05:49;;;;;;;3.25;1.02;;;;;;;11.67;86.48;98094.41;10501737;28;20590;-71
2022/11/17 17:10:51;;;;;;;3.35;1.35;;;;;;;11.63;85.14;98095.81;10549541;28;20390;-74
2022/11/17 17:15:52;;;;;;;2.10;0.75;;;;;;;11.56;85.38;98097.53;10510456;28;20055;-71
2022/11/17 17:20:53;;;;;;;3.22;1.23;;;;;;;11.57;84.93;98109.84;10502737;28;21503;-70
2022/11/17 17:26:05;;;;;;;2.75;0.73;;;;;;;11.46;85.73;98107.63;10505404;28;20051;-68
2022/11/17 17:31:07;;;;;;;2.47;1.17;;;;;;;11.44;86.47;98101.63;10511500;28;20124;-68
2022/11/17 17:36:13;;;;;;;4.13;1.10;;;;;;;11.39;87.14;98107.50;10518788;28;20052;-71
2022/11/17 17:41:17;;;;;;;4.57;2.70;;;;;;;11.35;87.83;98116.06;10553366;28;20043;-73
2022/11/17 17:46:18;;;;;;;6.65;2.10;;;;;;;11.28;89.21;98115.97;10519444;28;20564;-69
2022/11/17 17:51:24;;;;;;;2.15;1.33;;;;;;;11.25;89.24;98111.81;10503362;28;20058;-70
2022/11/17 17:56:25;;;;;;;4.40;1.20;;;;;;;11.29;89.25;98109.63;10497350;28;20314;-71
2022/11/17 18:01:29;;;;;;;3.65;1.83;;;;;;;11.23;87.43;98123.66;10501458;28;20047;-73
2022/11/17 18:06:38;;;;;;;3.50;1.50;;;;;;;11.10;87.45;98129.59;10488543;28;20508;-71
2022/11/17 18:11:48;;;;;;;4.15;1.80;;;;;;;11.21;88.71;98141.66;10503040;28;20150;-70
2022/11/17 18:16:50;;;;;;;4.22;1.70;;;;;;;11.26;88.56;98161.41;10486252;28;20051;-69
2022/11/17 18:21:51;;;;;;;3.28;1.77;;;;;;;11.27;88.52;98147.09;10502490;28;20048;-69
2022/11/17 18:26:53;;;;;;;4.13;1.75;;;;;;;11.42;88.02;98148.97;10503766;28;20059;-70
2022/11/17 18:31:54;;;;;;;2.50;1.50;;;;;;;11.31;87.37;98159.03;10504615;28;20172;-71
2022/11/17 18:36:55;;;;;;;3.97;1.38;;;;;;;11.31;86.96;98156.38;10508231;28;20848;-70
2022/11/17 18:41:57;;;;;;;3.13;1.70;;;;;;;11.19;87.87;98159.66;10516463;28;20047;-72
2022/11/17 18:46:58;;;;;;;4.75;2.17;;;;;;;11.11;88.51;98169.34;10533558;28;20074;-72
2022/11/17 18:52:04;;;;;;;6.07;3.28;;;;;;;10.90;88.69;98150.53;10494825;28;20048;-69
2022/11/17 18:57:06;;;;;;;6.25;3.92;;;;;;;10.81;89.99;98154.25;10511524;28;20130;-69
2022/11/17 19:02:07;;;;;;;5.50;2.92;;;;;;;10.76;90.16;98168.09;10512042;28;20700;-69
2022/11/17 19:07:09;;;;;;;6.00;2.83;;;;;;;10.81;90.11;98179.03;10506828;28;20082;-69
2022/11/17 19:12:11;;;;;;;6.72;3.60;;;;;;;10.82;90.05;98156.72;10496360;27;20062;-68
2022/11/17 19:17:12;;;;;;;5.13;2.70;;;;;;;10.82;89.55;98151.41;10507889;28;20054;-69
2022/11/17 19:22:14;;;;;;;5.10;4.00;;;;;;;10.85;89.32;98159.03;10511873;28;20052;-69
2022/11/17 19:27:15;;;;;;;5.43;3.10;;;;;;;10.79;89.47;98151.75;10510624;28;20047;-68
2022/11/17 19:32:16;;;;;;;6.70;3.83;;;;;;;10.79;89.10;98154.41;10508032;28;20070;-68
2022/11/17 19:37:18;;;;;;;4.65;3.38;;;;;;;10.76;89.51;98171.59;10510139;28;20159;-70
2022/11/17 19:42:19;;;;;;;5.95;3.45;;;;;;;10.83;89.52;98163.72;10511655;28;20044;-70
2022/11/17 19:47:20;;;;;;;5.90;3.13;;;;;;;10.80;89.23;98174.72;10510655;28;20087;-68
2022/11/17 19:52:22;;;;;;;4.63;3.25;;;;;;;10.82;89.61;98186.00;10514078;28;20052;-72
2022/11/17 19:57:23;;;;;;;7.78;3.42;;;;;;;10.81;89.25;98188.84;10520701;28;20044;-71
2022/11/17 20:02:24;;;;;;;4.10;3.70;;;;;;;10.73;89.55;98198.56;10534128;27;20093;-68
2022/11/17 20:07:25;;;;;;;5.88;3.50;;;;;;;10.60;88.95;98203.63;10510728;27;20058;-71
2022/11/17 20:12:27;;;;;;;5.10;3.85;;;;;;;10.51;89.17;98205.47;10518652;28;20067;-71
2022/11/17 20:17:29;;;;;;;3.20;2.72;;;;;;;10.47;89.50;98200.69;10511303;28;20558;-69
2022/11/17 20:22:30;;;;;;;4.32;3.08;;;;;;;10.54;90.53;98197.16;10531189;28;20139;-69
2022/11/17 20:27:32;;;;;;;5.05;3.75;;;;;;;10.56;90.52;98192.47;10532706;28;20150;-69
2022/11/17 20:32:34;;;;;;;3.58;2.92;;;;;;;10.50;90.66;98179.88;10527235;28;20229;-70
2022/11/17 20:37:35;;;;;;;3.00;2.70;;;;;;;10.50;90.87;98187.84;10507842;28;20059;-68
2022/11/17 20:42:36;;;;;;;5.25;2.83;;;;;;;10.47;90.54;98198.00;10510723;28;20062;-70
2022/11/17 20:47:38;;;;;;;3.47;3.05;;;;;;;10.50;90.39;98203.00;10530618;27;20058;-70
2022/11/17 20:52:39;;;;;;;6.07;4.30;;;;;;;10.52;90.22;98201.78;10524199;28;20150;-71
2022/11/17 20:57:41;;;;;;;6.78;5.43;;;;;;;10.63;89.83;98218.38;10513482;28;20048;-69
2022/11/17 21:02:42;;;;;;;5.30;4.80;;;;;;;10.63;90.27;98221.03;10509883;28;20044;-71
2022/11/17 21:07:43;;;;;;;7.45;5.95;;;;;;;10.57;90.96;98214.59;10521183;28;20043;-69
2022/11/17 21:12:45;;;;;;;7.63;6.20;;;;;;;10.60;90.89;98233.69;10522208;28;20499;-70
2022/11/17 21:23:06;;;;;;;6.72;4.78;;;;;;;10.63;90.00;98234.34;10530242;28;20122;-69
2022/11/17 21:28:08;;;;;;;7.13;5.35;;;;;;;10.65;90.10;98253.63;10530497;28;20619;-71
2022/11/17 21:33:09;;;;;;;6.05;5.40;;;;;;;10.62;89.78;98254.81;10540026;28;20067;-70
2022/11/17 21:38:11;;;;;;;7.05;6.18;;;;;;;10.61;90.09;98256.66;10539441;28;20067;-70
2022/11/17 21:43:12;;;;;;;6.38;5.78;;;;;;;10.63;90.27;98266.25;10531427;28;20055;-71
2022/11/17 21:48:13;;;;;;;11.40;7.45;;;;;;;10.70;90.09;98268.06;10545986;28;20044;-70
2022/11/17 21:53:15;;;;;;;8.43;6.65;;;;;;;10.73;89.32;98258.91;10546951;28;20044;-69
2022/11/17 21:58:16;;;;;;;6.55;5.93;;;;;;;10.65;90.73;98253.63;10558552;28;20075;-71
2022/11/17 22:03:17;;;;;;;8.55;5.97;;;;;;;10.60;91.17;98254.97;10559541;28;20152;-70
2022/11/17 22:08:18;;;;;;;8.55;6.13;;;;;;;10.64;90.69;98249.31;10541683;28;20039;-71
2022/11/17 22:13:20;;;;;;;7.30;6.60;;;;;;;10.64;90.72;98262.63;10560935;28;20133;-71
2022/11/17 22:18:21;;;;;;;7.10;6.25;;;;;;;10.71;90.82;98267.06;10549298;28;20043;-72
2022/11/17 22:23:22;;;;;;;9.10;6.20;;;;;;;10.72;90.73;98278.53;10531401;27;20066;-70
2022/11/17 22:28:25;;;;;;;7.80;6.55;;;;;;;10.77;90.61;98289.50;10530583;28;20159;-69
2022/11/17 22:33:27;;;;;;;9.27;7.60;;;;;;;10.74;90.29;98272.03;10535010;28;20055;-69
2022/11/17 22:38:30;;;;;;;7.75;6.97;;;;;;;10.76;90.68;98279.84;10527533;28;20051;-70
2022/11/17 22:43:32;;;;;;;10.23;7.05;;;;;;;10.81;90.49;98285.50;10520838;28;20168;-69
2022/11/17 22:48:35;;;;;;;7.43;6.57;;;;;;;10.77;90.37;98279.69;10528352;28;20055;-69
2022/11/17 22:53:37;;;;;;;9.95;6.93;;;;;;;10.73;90.26;98272.22;10526175;27;20051;-69
2022/11/17 22:58:38;;;;;;;6.78;5.93;;;;;;;10.74;90.29;98289.84;10539174;28;20040;-72
2022/11/17 23:03:39;;;;;;;8.80;7.65;;;;;;;10.78;90.45;98291.19;10569658;28;20063;-72
2022/11/17 23:08:41;;;;;;;11.95;9.07;;;;;;;10.79;90.54;98277.69;10549959;28;20047;-68
2022/11/17 23:13:42;;;;;;;12.05;8.57;;;;;;;10.90;90.52;98273.81;10544254;27;20047;-71
2022/11/17 23:18:43;;;;;;;12.70;8.90;;;;;;;10.92;90.33;98271.78;10563503;28;20063;-69
2022/11/17 23:23:44;;;;;;;12.45;8.63;;;;;;;10.94;91.38;98279.59;10558063;28;20040;-73
2022/11/17 23:28:46;;;;;;;9.90;8.10;;;;;;;10.94;92.25;98274.28;10535672;28;20051;-69
2022/11/17 23:33:47;;;;;;;11.20;8.35;;;;;;;10.95;92.28;98268.78;10527186;28;20050;-69
2022/11/17 23:38:50;;;;;;;10.98;8.55;;;;;;;10.93;92.57;98277.97;10526604;28;20051;-71
2022/11/17 23:43:52;;;;;;;12.10;9.32;;;;;;;10.96;92.88;98277.63;10552440;28;20048;-71
2022/11/17 23:48:55;;;;;;;13.38;8.73;;;;;;;10.98;93.38;98285.44;10528279;28;20048;-71
2022/11/17 23:53:59;;;;;;;13.20;9.57;;;;;;;11.08;92.99;98283.34;10507054;28;20140;-74
2022/11/17 23:59:01;;;;;;;11.50;9.70;;;;;;;11.11;92.68;98296.34;10512161;28;20181;-71
